HAZ606 RCTP-ZSHC
Flight info
| Callsign | HAZ606 |
|---|---|
| Flight time | 1h 13m |
| Altitude | 37000 |
| Route | PIANO1A PIANO L3 VIOLA R596 SULEM/K0917S1130 R596 BZ A470 UGAGO UGAGO52 |
| Aircraft | A359/H-SDE2E3GHIJ3J4J5LM1ORWXY/LB1D1 |
Departure
| Time | 2026-05-08 20:53 |
|---|---|
| Airport | Taiwan Taoyuan International Airport (RCTP) |
Arrival
| Time | 2026-05-08 22:06 |
|---|---|
| Airport | Hangzhou Xiaoshan International Airport (ZSHC) |
| Time | Latitude | Longitude | Altitude | Speed | Heading |
|---|---|---|---|---|---|
| 2026-05-08 20:53 | 25.32441 | 121.28294 | 10563 ft | 302 kts | 353° |
| 2026-05-08 20:53 | 25.34584 | 121.28247 | 10897 ft | 323 kts | 353° |
| 2026-05-08 20:53 | 25.36907 | 121.28420 | 11190 ft | 348 kts | 7° |
| 2026-05-08 20:54 | 25.39253 | 121.29373 | 11547 ft | 371 kts | 27° |
| 2026-05-08 20:54 | 25.41274 | 121.31204 | 12178 ft | 381 kts | 44° |
| 2026-05-08 20:54 | 25.43039 | 121.33430 | 12777 ft | 388 kts | 46° |
| 2026-05-08 20:54 | 25.44803 | 121.35717 | 13395 ft | 393 kts | 46° |
| 2026-05-08 20:55 | 25.46585 | 121.38014 | 14057 ft | 395 kts | 46° |
| 2026-05-08 20:55 | 25.48385 | 121.40326 | 14600 ft | 399 kts | 46° |
| 2026-05-08 20:55 | 25.50215 | 121.42671 | 15081 ft | 405 kts | 46° |
| 2026-05-08 20:55 | 25.52039 | 121.45006 | 15646 ft | 407 kts | 46° |
| 2026-05-08 20:56 | 25.53900 | 121.47389 | 16205 ft | 411 kts | 46° |
| 2026-05-08 20:56 | 25.55782 | 121.49798 | 16720 ft | 416 kts | 46° |
| 2026-05-08 20:56 | 25.57687 | 121.52238 | 17235 ft | 420 kts | 46° |
| 2026-05-08 20:56 | 25.59604 | 121.54695 | 17768 ft | 424 kts | 46° |
| 2026-05-08 20:57 | 25.61540 | 121.57177 | 18285 ft | 428 kts | 45° |
| 2026-05-08 20:57 | 25.63495 | 121.59684 | 18738 ft | 432 kts | 45° |
| 2026-05-08 20:57 | 25.65461 | 121.62208 | 19209 ft | 434 kts | 45° |
| 2026-05-08 20:57 | 25.67443 | 121.64753 | 19698 ft | 437 kts | 45° |
| 2026-05-08 20:58 | 25.69432 | 121.67309 | 20192 ft | 440 kts | 45° |
| 2026-05-08 20:58 | 25.71411 | 121.69852 | 20685 ft | 443 kts | 45° |
| 2026-05-08 20:58 | 25.73426 | 121.72445 | 21184 ft | 445 kts | 45° |
| 2026-05-08 20:58 | 25.75460 | 121.75062 | 21659 ft | 450 kts | 45° |
| 2026-05-08 20:59 | 25.77509 | 121.77700 | 22142 ft | 453 kts | 45° |
| 2026-05-08 20:59 | 25.79579 | 121.80342 | 22606 ft | 455 kts | 44° |
| 2026-05-08 20:59 | 25.81874 | 121.82752 | 23074 ft | 454 kts | 35° |
| 2026-05-08 20:59 | 25.84353 | 121.84924 | 23529 ft | 455 kts | 32° |
| 2026-05-08 21:00 | 25.86916 | 121.87007 | 23945 ft | 457 kts | 31° |
| 2026-05-08 21:00 | 25.89512 | 121.89055 | 24341 ft | 460 kts | 30° |
| 2026-05-08 21:00 | 25.92096 | 121.91084 | 24753 ft | 463 kts | 30° |
| 2026-05-08 21:00 | 25.94728 | 121.93165 | 25206 ft | 466 kts | 30° |
| 2026-05-08 21:01 | 25.97375 | 121.95277 | 25593 ft | 471 kts | 30° |
| 2026-05-08 21:01 | 26.00039 | 121.97420 | 26027 ft | 474 kts | 30° |
| 2026-05-08 21:01 | 26.02713 | 121.99584 | 26493 ft | 477 kts | 30° |
| 2026-05-08 21:01 | 26.05402 | 122.01753 | 26953 ft | 479 kts | 30° |
| 2026-05-08 21:02 | 26.08094 | 122.03870 | 27393 ft | 481 kts | 29° |
| 2026-05-08 21:02 | 26.10847 | 122.06007 | 27826 ft | 484 kts | 28° |
| 2026-05-08 21:02 | 26.13610 | 122.08146 | 28260 ft | 487 kts | 28° |
| 2026-05-08 21:02 | 26.16410 | 122.10317 | 28679 ft | 491 kts | 29° |
| 2026-05-08 21:03 | 26.19220 | 122.12505 | 29051 ft | 496 kts | 28° |
| 2026-05-08 21:03 | 26.22058 | 122.14723 | 29445 ft | 499 kts | 28° |
| 2026-05-08 21:03 | 26.24906 | 122.16955 | 29866 ft | 502 kts | 28° |
| 2026-05-08 21:03 | 26.27763 | 122.19199 | 30265 ft | 505 kts | 28° |
| 2026-05-08 21:04 | 26.30603 | 122.21431 | 30586 ft | 507 kts | 28° |
| 2026-05-08 21:04 | 26.33493 | 122.23704 | 30914 ft | 510 kts | 28° |
| 2026-05-08 21:04 | 26.36401 | 122.25992 | 31237 ft | 512 kts | 28° |
| 2026-05-08 21:04 | 26.39318 | 122.28289 | 31580 ft | 515 kts | 28° |
| 2026-05-08 21:05 | 26.42258 | 122.30603 | 31796 ft | 519 kts | 28° |
| 2026-05-08 21:05 | 26.45219 | 122.32935 | 32095 ft | 521 kts | 28° |
| 2026-05-08 21:05 | 26.48187 | 122.35275 | 32394 ft | 523 kts | 28° |
| 2026-05-08 21:05 | 26.51162 | 122.37623 | 32696 ft | 525 kts | 28° |
| 2026-05-08 21:06 | 26.54149 | 122.39982 | 32979 ft | 527 kts | 28° |
| 2026-05-08 21:06 | 26.57148 | 122.42351 | 33252 ft | 529 kts | 28° |
| 2026-05-08 21:06 | 26.60121 | 122.44702 | 33531 ft | 531 kts | 28° |
| 2026-05-08 21:06 | 26.63137 | 122.47087 | 33797 ft | 533 kts | 28° |
| 2026-05-08 21:07 | 26.66163 | 122.49484 | 34145 ft | 532 kts | 27° |
| 2026-05-08 21:07 | 26.69179 | 122.51875 | 34468 ft | 531 kts | 27° |
| 2026-05-08 21:07 | 26.72190 | 122.54264 | 34781 ft | 530 kts | 27° |
| 2026-05-08 21:07 | 26.75198 | 122.56651 | 35089 ft | 530 kts | 27° |
| 2026-05-08 21:08 | 26.78203 | 122.59037 | 35374 ft | 529 kts | 27° |
| 2026-05-08 21:08 | 26.81202 | 122.61418 | 35683 ft | 529 kts | 27° |
| 2026-05-08 21:08 | 26.84204 | 122.63804 | 35900 ft | 530 kts | 27° |
| 2026-05-08 21:08 | 26.87175 | 122.66164 | 36129 ft | 531 kts | 27° |
| 2026-05-08 21:09 | 26.90185 | 122.68558 | 36407 ft | 530 kts | 27° |
| 2026-05-08 21:09 | 26.93187 | 122.70949 | 36696 ft | 529 kts | 27° |
| 2026-05-08 21:09 | 26.96184 | 122.73338 | 36961 ft | 529 kts | 27° |
| 2026-05-08 21:09 | 26.99189 | 122.75734 | 37121 ft | 530 kts | 27° |
| 2026-05-08 21:10 | 27.02190 | 122.78127 | 37138 ft | 529 kts | 27° |
| 2026-05-08 21:10 | 27.08182 | 122.82914 | 37140 ft | 529 kts | 27° |
| 2026-05-08 21:11 | 27.14151 | 122.87598 | 37142 ft | 524 kts | 23° |
| 2026-05-08 21:11 | 27.17355 | 122.89457 | 37131 ft | 512 kts | 14° |
| 2026-05-08 21:11 | 27.20693 | 122.90691 | 37138 ft | 499 kts | 4° |
| 2026-05-08 21:11 | 27.24069 | 122.91269 | 37141 ft | 485 kts | 354° |
| 2026-05-08 21:12 | 27.27402 | 122.91207 | 37152 ft | 473 kts | 345° |
| 2026-05-08 21:12 | 27.30599 | 122.90541 | 37144 ft | 462 kts | 336° |
| 2026-05-08 21:12 | 27.33602 | 122.89358 | 37136 ft | 453 kts | 328° |
| 2026-05-08 21:13 | 27.38799 | 122.85648 | 37144 ft | 436 kts | 312° |
| 2026-05-08 21:13 | 27.42642 | 122.80589 | 37141 ft | 424 kts | 297° |
| 2026-05-08 21:14 | 27.45008 | 122.74581 | 37139 ft | 419 kts | 284° |
| 2026-05-08 21:14 | 27.45762 | 122.68112 | 37141 ft | 418 kts | 270° |
| 2026-05-08 21:15 | 27.44886 | 122.61635 | 37153 ft | 422 kts | 259° |
| 2026-05-08 21:15 | 27.44009 | 122.55190 | 37149 ft | 418 kts | 269° |
| 2026-05-08 21:16 | 27.43869 | 122.48657 | 37149 ft | 417 kts | 270° |
| 2026-05-08 21:16 | 27.44021 | 122.42135 | 37149 ft | 417 kts | 277° |
| 2026-05-08 21:17 | 27.45002 | 122.35698 | 37148 ft | 417 kts | 280° |
| 2026-05-08 21:17 | 27.46123 | 122.29339 | 37148 ft | 417 kts | 281° |
| 2026-05-08 21:18 | 27.47264 | 122.22942 | 37150 ft | 416 kts | 280° |
| 2026-05-08 21:18 | 27.48388 | 122.16548 | 37154 ft | 416 kts | 280° |
| 2026-05-08 21:19 | 27.49502 | 122.10152 | 37155 ft | 416 kts | 280° |
| 2026-05-08 21:19 | 27.50603 | 122.03802 | 37157 ft | 416 kts | 280° |
| 2026-05-08 21:20 | 27.51707 | 121.97417 | 37156 ft | 415 kts | 280° |
| 2026-05-08 21:20 | 27.52807 | 121.91041 | 37163 ft | 414 kts | 280° |
| 2026-05-08 21:21 | 27.53902 | 121.84672 | 37167 ft | 414 kts | 280° |
| 2026-05-08 21:21 | 27.54996 | 121.78298 | 37169 ft | 414 kts | 280° |
| 2026-05-08 21:22 | 27.56078 | 121.71972 | 37167 ft | 414 kts | 280° |
| 2026-05-08 21:22 | 27.57164 | 121.65602 | 37168 ft | 414 kts | 280° |
| 2026-05-08 21:23 | 27.58247 | 121.59235 | 37151 ft | 414 kts | 280° |
| 2026-05-08 21:23 | 27.59353 | 121.52844 | 37167 ft | 417 kts | 281° |
| 2026-05-08 21:24 | 27.60488 | 121.46487 | 37171 ft | 416 kts | 281° |
| 2026-05-08 21:24 | 27.61626 | 121.40090 | 37176 ft | 416 kts | 281° |
| 2026-05-08 21:25 | 27.62756 | 121.33694 | 37177 ft | 416 kts | 281° |
| 2026-05-08 21:25 | 27.63879 | 121.27305 | 37175 ft | 416 kts | 281° |
| 2026-05-08 21:26 | 27.64993 | 121.20947 | 37177 ft | 415 kts | 280° |
| 2026-05-08 21:26 | 27.66108 | 121.14569 | 37179 ft | 414 kts | 280° |
| 2026-05-08 21:27 | 27.67218 | 121.08197 | 37178 ft | 414 kts | 280° |
| 2026-05-08 21:27 | 27.68326 | 121.01816 | 37183 ft | 414 kts | 280° |
| 2026-05-08 21:28 | 27.69432 | 120.95436 | 37193 ft | 414 kts | 280° |
| 2026-05-08 21:28 | 27.70527 | 120.89103 | 37186 ft | 414 kts | 280° |
| 2026-05-08 21:29 | 27.71624 | 120.82733 | 37187 ft | 413 kts | 280° |
| 2026-05-08 21:29 | 27.72718 | 120.76364 | 37189 ft | 413 kts | 280° |
| 2026-05-08 21:30 | 27.73811 | 120.69985 | 37191 ft | 414 kts | 280° |
| 2026-05-08 21:30 | 27.74974 | 120.63634 | 37192 ft | 414 kts | 284° |
| 2026-05-08 21:31 | 27.76819 | 120.57510 | 37197 ft | 415 kts | 288° |
| 2026-05-08 21:31 | 27.78845 | 120.51404 | 37194 ft | 415 kts | 288° |
| 2026-05-08 21:32 | 27.80895 | 120.45300 | 37195 ft | 415 kts | 288° |
| 2026-05-08 21:32 | 27.82931 | 120.39199 | 37199 ft | 415 kts | 288° |
| 2026-05-08 21:33 | 27.84941 | 120.33133 | 37200 ft | 415 kts | 288° |
| 2026-05-08 21:33 | 27.86961 | 120.27014 | 37202 ft | 416 kts | 288° |
| 2026-05-08 21:34 | 27.88984 | 120.20889 | 37208 ft | 417 kts | 288° |
| 2026-05-08 21:34 | 27.91022 | 120.14755 | 37203 ft | 416 kts | 288° |
| 2026-05-08 21:35 | 27.93037 | 120.08634 | 37207 ft | 415 kts | 288° |
| 2026-05-08 21:35 | 27.95025 | 120.02562 | 37206 ft | 414 kts | 288° |
| 2026-05-08 21:36 | 27.97031 | 119.96452 | 37201 ft | 415 kts | 288° |
| 2026-05-08 21:36 | 27.99041 | 119.90322 | 37195 ft | 415 kts | 288° |
| 2026-05-08 21:37 | 28.01046 | 119.84198 | 37192 ft | 415 kts | 288° |
| 2026-05-08 21:37 | 28.03041 | 119.78075 | 37195 ft | 413 kts | 288° |
| 2026-05-08 21:38 | 28.05013 | 119.72040 | 37198 ft | 410 kts | 288° |
| 2026-05-08 21:38 | 28.07236 | 119.66081 | 37191 ft | 413 kts | 295° |
| 2026-05-08 21:39 | 28.10665 | 119.60795 | 37191 ft | 423 kts | 308° |
| 2026-05-08 21:39 | 28.15364 | 119.56743 | 37180 ft | 440 kts | 323° |
| 2026-05-08 21:39 | 28.18256 | 119.55265 | 37182 ft | 451 kts | 331° |
| 2026-05-08 21:40 | 28.21319 | 119.54314 | 37163 ft | 464 kts | 339° |
| 2026-05-08 21:40 | 28.24567 | 119.53904 | 36919 ft | 476 kts | 348° |
| 2026-05-08 21:40 | 28.27872 | 119.54095 | 36674 ft | 491 kts | 358° |
| 2026-05-08 21:41 | 28.34600 | 119.56290 | 36217 ft | 507 kts | 6° |
| 2026-05-08 21:41 | 28.37982 | 119.57251 | 35981 ft | 495 kts | 359° |
| 2026-05-08 21:41 | 28.41355 | 119.57742 | 35739 ft | 487 kts | 355° |
| 2026-05-08 21:41 | 28.44723 | 119.58069 | 35507 ft | 484 kts | 353° |
| 2026-05-08 21:42 | 28.48084 | 119.58322 | 35267 ft | 483 kts | 352° |
| 2026-05-08 21:42 | 28.51441 | 119.58538 | 35049 ft | 483 kts | 352° |
| 2026-05-08 21:42 | 28.54792 | 119.58739 | 34811 ft | 483 kts | 352° |
| 2026-05-08 21:42 | 28.58099 | 119.58932 | 34595 ft | 483 kts | 352° |
| 2026-05-08 21:43 | 28.61456 | 119.59132 | 34408 ft | 483 kts | 352° |
| 2026-05-08 21:43 | 28.64804 | 119.59341 | 33957 ft | 481 kts | 352° |
| 2026-05-08 21:43 | 28.68148 | 119.59542 | 33135 ft | 481 kts | 352° |
| 2026-05-08 21:43 | 28.71496 | 119.59739 | 32317 ft | 482 kts | 353° |
| 2026-05-08 21:44 | 28.74849 | 119.59936 | 31466 ft | 484 kts | 353° |
| 2026-05-08 21:44 | 28.78209 | 119.60135 | 30814 ft | 481 kts | 354° |
| 2026-05-08 21:44 | 28.81528 | 119.60351 | 30261 ft | 477 kts | 354° |
| 2026-05-08 21:44 | 28.84790 | 119.60565 | 29639 ft | 473 kts | 354° |
| 2026-05-08 21:45 | 28.88055 | 119.60769 | 29037 ft | 468 kts | 354° |
| 2026-05-08 21:45 | 28.91296 | 119.60967 | 28456 ft | 464 kts | 354° |
| 2026-05-08 21:45 | 28.94504 | 119.61168 | 27887 ft | 461 kts | 355° |
| 2026-05-08 21:45 | 28.97698 | 119.61370 | 27343 ft | 457 kts | 355° |
| 2026-05-08 21:46 | 29.00855 | 119.61565 | 26772 ft | 453 kts | 355° |
| 2026-05-08 21:46 | 29.03995 | 119.61757 | 26223 ft | 450 kts | 355° |
| 2026-05-08 21:46 | 29.07108 | 119.61947 | 25673 ft | 446 kts | 355° |
| 2026-05-08 21:46 | 29.10158 | 119.62136 | 25136 ft | 444 kts | 356° |
| 2026-05-08 21:47 | 29.13235 | 119.62326 | 24549 ft | 443 kts | 356° |
| 2026-05-08 21:47 | 29.16307 | 119.62510 | 23980 ft | 440 kts | 356° |
| 2026-05-08 21:47 | 29.19363 | 119.62692 | 23374 ft | 438 kts | 357° |
| 2026-05-08 21:47 | 29.22396 | 119.62870 | 22789 ft | 435 kts | 357° |
| 2026-05-08 21:48 | 29.25401 | 119.63050 | 22220 ft | 430 kts | 357° |
| 2026-05-08 21:48 | 29.28366 | 119.63218 | 21667 ft | 424 kts | 357° |
| 2026-05-08 21:48 | 29.31299 | 119.63391 | 21117 ft | 421 kts | 357° |
| 2026-05-08 21:48 | 29.34178 | 119.63572 | 20580 ft | 418 kts | 358° |
| 2026-05-08 21:49 | 29.37073 | 119.63756 | 20007 ft | 415 kts | 359° |
| 2026-05-08 21:49 | 29.39949 | 119.63939 | 19449 ft | 413 kts | 359° |
| 2026-05-08 21:49 | 29.42813 | 119.64118 | 18881 ft | 411 kts | 359° |
| 2026-05-08 21:49 | 29.45661 | 119.64293 | 18288 ft | 408 kts | 359° |
| 2026-05-08 21:50 | 29.48474 | 119.64423 | 17698 ft | 403 kts | 358° |
| 2026-05-08 21:50 | 29.51267 | 119.64577 | 17126 ft | 399 kts | 359° |
| 2026-05-08 21:50 | 29.54024 | 119.64763 | 16591 ft | 395 kts | 359° |
| 2026-05-08 21:50 | 29.56751 | 119.64938 | 16016 ft | 392 kts | 358° |
| 2026-05-08 21:51 | 29.59429 | 119.65012 | 15484 ft | 387 kts | 358° |
| 2026-05-08 21:51 | 29.62109 | 119.65058 | 14934 ft | 384 kts | 359° |
| 2026-05-08 21:51 | 29.64775 | 119.65144 | 14365 ft | 382 kts | 1° |
| 2026-05-08 21:51 | 29.67421 | 119.65331 | 13776 ft | 380 kts | 2° |
| 2026-05-08 21:52 | 29.70041 | 119.65531 | 13214 ft | 375 kts | 2° |
| 2026-05-08 21:52 | 29.72626 | 119.65740 | 12678 ft | 370 kts | 4° |
| 2026-05-08 21:52 | 29.75124 | 119.66376 | 12160 ft | 367 kts | 20° |
| 2026-05-08 21:52 | 29.77288 | 119.67878 | 11632 ft | 365 kts | 40° |
| 2026-05-08 21:53 | 29.78947 | 119.70061 | 11160 ft | 360 kts | 53° |
| 2026-05-08 21:53 | 29.80366 | 119.72359 | 11055 ft | 344 kts | 54° |
| 2026-05-08 21:53 | 29.81698 | 119.74528 | 10944 ft | 329 kts | 53° |
| 2026-05-08 21:53 | 29.82994 | 119.76625 | 10823 ft | 314 kts | 53° |
| 2026-05-08 21:54 | 29.84239 | 119.78634 | 10687 ft | 302 kts | 53° |
| 2026-05-08 21:54 | 29.85437 | 119.80562 | 10552 ft | 290 kts | 53° |
| 2026-05-08 21:54 | 29.86590 | 119.82416 | 10372 ft | 281 kts | 53° |
| 2026-05-08 21:54 | 29.87722 | 119.84234 | 10060 ft | 279 kts | 53° |
| 2026-05-08 21:55 | 29.88882 | 119.86093 | 9746 ft | 292 kts | 53° |
| 2026-05-08 21:55 | 29.90024 | 119.88010 | 9516 ft | 296 kts | 58° |
| 2026-05-08 21:55 | 29.91015 | 119.90083 | 9175 ft | 295 kts | 62° |
| 2026-05-08 21:56 | 29.92862 | 119.94246 | 8541 ft | 290 kts | 62° |
| 2026-05-08 21:56 | 29.93780 | 119.96312 | 8268 ft | 288 kts | 62° |
| 2026-05-08 21:56 | 29.94696 | 119.98357 | 7998 ft | 287 kts | 62° |
| 2026-05-08 21:56 | 29.95611 | 120.00391 | 7704 ft | 285 kts | 62° |
| 2026-05-08 21:57 | 29.96525 | 120.02418 | 7426 ft | 283 kts | 62° |
| 2026-05-08 21:57 | 29.97402 | 120.04366 | 7312 ft | 272 kts | 62° |
| 2026-05-08 21:57 | 29.98252 | 120.06256 | 7183 ft | 260 kts | 63° |
| 2026-05-08 21:57 | 29.99067 | 120.08062 | 7080 ft | 248 kts | 63° |
| 2026-05-08 21:58 | 29.99841 | 120.09786 | 6936 ft | 238 kts | 64° |
| 2026-05-08 21:58 | 30.00594 | 120.11470 | 6720 ft | 234 kts | 64° |
| 2026-05-08 21:58 | 30.01334 | 120.13121 | 6429 ft | 231 kts | 64° |
| 2026-05-08 21:58 | 30.02075 | 120.14758 | 6140 ft | 229 kts | 64° |
| 2026-05-08 21:59 | 30.02796 | 120.16353 | 5932 ft | 226 kts | 63° |
| 2026-05-08 21:59 | 30.03799 | 120.17745 | 5709 ft | 229 kts | 38° |
| 2026-05-08 21:59 | 30.05285 | 120.18390 | 5495 ft | 234 kts | 5° |
| 2026-05-08 21:59 | 30.06875 | 120.18022 | 5283 ft | 237 kts | 337° |
| 2026-05-08 22:00 | 30.08355 | 120.17170 | 5053 ft | 239 kts | 333° |
| 2026-05-08 22:00 | 30.09818 | 120.16270 | 4846 ft | 236 kts | 333° |
| 2026-05-08 22:00 | 30.11318 | 120.15720 | 4739 ft | 219 kts | 3° |
| 2026-05-08 22:00 | 30.12678 | 120.16255 | 4656 ft | 205 kts | 44° |
| 2026-05-08 22:01 | 30.13524 | 120.17489 | 4495 ft | 194 kts | 65° |
| 2026-05-08 22:01 | 30.14122 | 120.18850 | 4352 ft | 187 kts | 68° |
| 2026-05-08 22:01 | 30.14702 | 120.20179 | 4096 ft | 185 kts | 67° |
| 2026-05-08 22:01 | 30.15298 | 120.21512 | 3788 ft | 187 kts | 67° |
| 2026-05-08 22:02 | 30.15890 | 120.22849 | 3511 ft | 187 kts | 68° |
| 2026-05-08 22:02 | 30.16481 | 120.24190 | 3245 ft | 186 kts | 68° |
| 2026-05-08 22:02 | 30.17062 | 120.25502 | 2982 ft | 182 kts | 68° |
| 2026-05-08 22:02 | 30.17639 | 120.26812 | 2748 ft | 184 kts | 68° |
| 2026-05-08 22:03 | 30.18216 | 120.28118 | 2504 ft | 185 kts | 68° |
| 2026-05-08 22:03 | 30.18801 | 120.29444 | 2249 ft | 184 kts | 67° |
| 2026-05-08 22:03 | 30.19366 | 120.30719 | 1979 ft | 173 kts | 67° |
| 2026-05-08 22:03 | 30.19895 | 120.31924 | 1714 ft | 164 kts | 67° |
| 2026-05-08 22:04 | 30.20387 | 120.33068 | 1469 ft | 155 kts | 67° |
| 2026-05-08 22:04 | 30.20857 | 120.34139 | 1281 ft | 144 kts | 66° |
| 2026-05-08 22:04 | 30.21319 | 120.35141 | 1063 ft | 139 kts | 65° |
| 2026-05-08 22:04 | 30.21765 | 120.36127 | 908 ft | 138 kts | 66° |
| 2026-05-08 22:05 | 30.22187 | 120.37130 | 745 ft | 139 kts | 66° |
| 2026-05-08 22:05 | 30.22597 | 120.38135 | 600 ft | 138 kts | 65° |
| 2026-05-08 22:05 | 30.23039 | 120.39105 | 400 ft | 137 kts | 60° |
| 2026-05-08 22:05 | 30.23494 | 120.40075 | 221 ft | 137 kts | 62° |
| 2026-05-08 22:06 | 30.23925 | 120.41055 | 89 ft | 138 kts | 64° |
| 2026-05-08 22:06 | 30.24350 | 120.42036 | 41 ft | 131 kts | 63° |
| 2026-05-08 22:06 | 30.24660 | 120.42730 | 35 ft | 41 kts | 63° |
| 2026-05-08 22:06 | 30.24720 | 120.42956 | 38 ft | 28 kts | 84° |
| 2026-05-08 22:07 | 30.24722 | 120.43056 | 39 ft | 8 kts | 89° |
| 2026-05-08 22:07 | 30.24723 | 120.43139 | 39 ft | 14 kts | 89° |
| 2026-05-08 22:07 | 30.24684 | 120.43251 | 38 ft | 16 kts | 139° |
| 2026-05-08 22:07 | 30.24578 | 120.43310 | 38 ft | 17 kts | 173° |
| 2026-05-08 22:08 | 30.24502 | 120.43232 | 38 ft | 16 kts | 242° |
| 2026-05-08 22:08 | 30.24448 | 120.43110 | 38 ft | 19 kts | 243° |
| 2026-05-08 22:08 | 30.24382 | 120.42961 | 38 ft | 22 kts | 243° |
| 2026-05-08 22:08 | 30.24307 | 120.42801 | 38 ft | 22 kts | 243° |
| 2026-05-08 22:09 | 30.24237 | 120.42680 | 38 ft | 14 kts | 208° |
| 2026-05-08 22:09 | 30.24168 | 120.42689 | 38 ft | 2 kts | 162° |
| 2026-05-08 22:09 | 30.24151 | 120.42695 | 38 ft | 0 kts | 161° |